KCKZ

Details ICAO KCKZ
Name Pennridge Airport
Region United States
Timezone America/New_York (UTC-5.0)
Plans Departing 0
Arriving 1
Stats Elevation 567 ft / 173 m (AMSL)
Location 40.389196° -75.290674°
Runways 1
Magnetic Variation 12.149° W
Sunrise 2017-12-12 12:16:28 UTC / 2017-12-12 07:16:28 Local
Sunset 2017-12-12 21:36:23 UTC / 2017-12-12 16:36:23 Local
Advertisement - Login to hide

Runways

ID Width Length Bearing (true) Bearing (mag) Surface Threshold Offset Overrun Length
08 100 ft / 30 m 4,201 ft / 1,281 m 249.63° 261.78° Asphalt 351 ft / 107 m 0 ft / 0 m
26 100 ft / 30 m 4,201 ft / 1,281 m 69.62° 81.77° Asphalt 266 ft / 81 m 0 ft / 0 m

Map

Weather


0- 5 10 15 20 25 30 35+ Temperature / ° C

Clouds and Precipitation
Forecast for 2017-12-12 12:00 UTC. Updated an hour ago

Ground ~20,000 ft ~40,000 ft Winds

METAR

KCKZ 121235Z AUTO 00000KT 10SM SCT065 SCT075 OVC100 02/00 A2961 RMK AO2

TAF

Not found

Frequencies

Recorded 126.32 MHz WX AWOS-3
Clearance 118.55 MHz CLNC DEL
Unicom 123.00 MHz CTAF/UNICOM
Approach 123.80 MHz PHILADELPHIA APP/DEP
Warning: Do not use this data for real-world aviation or navigation. No guarantee of current accuracy is given.